Daily Weather Observations for Burdell (Townsville)
For Thursday 21st February 2019

This table is designed for ease of comparison to Bureau of Meteorology recorded weather data.

Station Details Name: BURDELL Lat: -19.24 Lon: 146.69 Height: 8.5 m
Date/Time
EST
Temp
°C
App
Temp
°C
Dew
Point
°C
Rel
Hum
%
Delta-T
°C
Wind Press
QNH
hPa
Press
MSL
hPa
Rain since
9am
mm
Dir  Spd
km/h
Gust
km/h
Spd
kts
Gust
kts
21/11:30pm 26.8 33.0 24.8 89 1.5 WSW 2 2 1 1 1003.6 1003.6 0.0
21/11:00pm 26.9 32.9 24.9 89 1.5 W 3 5 1 3 1003.5 1003.5 0.0
21/10:30pm 27.6 33.9 25.4 88 1.6 WSW 2 5 1 3 1003.2 1003.2 0.0
21/10:00pm 28.1 34.7 26.3 90 1.4 WSW 3 5 2 3 1002.8 1002.8 0.0
21/09:30pm 28.1 35.3 26.3 90 1.4 S 1 2 0 1 1002.6 1002.6 0.0
21/09:00pm 28.3 35.5 26.3 89 1.5 SSE 1 2 1 1 1002.5 1002.5 0.0
21/08:30pm 28.5 35.7 26.5 89 1.5 ESE 1 2 1 1 1002.4 1002.4 0.0
21/08:00pm 28.8 35.7 26.4 87 1.8 NE 2 2 1 1 1002.1 1002.1 0.0
21/07:30pm 29.2 36.3 26.3 85 2.2 ENE 9 13 5 7 1001.6 1001.6 0.0
21/07:00pm 29.7 37.0 26.1 81 2.7 ENE 15 18 8 10 1001.0 1001.0 0.0
21/06:30pm 30.9 38.3 25.7 75 3.9 ENE 14 18 7 10 1000.4 1000.4 0.0
21/06:00pm 32.3 38.2 24.1 63 6.0 ENE 21 32 11 17 1000.2 1000.2 0.0
21/05:30pm 33.5 39.1 23.5 57 7.2 ENE 17 21 9 11 1000.0 1000.0 0.0
21/05:00pm 35.6 42.6 23.9 51 8.5 ENE 16 23 8 13 999.6 999.6 0.0
21/04:30pm 40.3 45.3 21.7 37 13.1 S 23 26 12 14 999.3 999.3 0.0
21/04:00pm 40.7 39.4 10.9 17 16.9 SW 25 37 14 20 999.1 999.1 0.0
21/03:30pm 41.1 40.3 12.1 18 16.9 SSW 17 23 9 13 999.4 999.4 0.0
21/03:00pm 41.1 40.3 12.7 19 16.8 SSW 17 23 9 13 999.6 999.6 0.0
21/02:30pm 41.3 40.6 12.9 19 16.9 SSW 17 26 9 14 999.9 999.9 0.0
21/02:00pm 40.6 39.9 12.5 19 16.6 SSW 22 29 12 16 1000.3 1000.3 0.0
21/01:30pm 40.3 39.8 13.0 20 16.3 SW 24 32 13 17 1000.8 1000.8 0.0
21/01:00pm 39.9 39.7 14.1 22 15.8 WSW 19 26 10 14 1001.5 1001.5 0.0
21/12:30pm 39.7 40.1 15.7 25 15.2 SW 16 21 9 11 1001.8 1001.8 0.0
21/12:00pm 38.9 40.0 16.9 28 14.2 W 15 23 8 13 1002.4 1002.4 0.0
21/11:30am 38.0 38.8 16.3 28 13.9 SW 16 26 9 14 1002.8 1002.8 0.0
21/11:00am 37.8 38.0 15.9 28 13.9 SW 12 18 7 10 1003.2 1003.2 0.0
21/10:30am 36.6 36.6 16.0 30 13.1 W 12 18 6 10 1003.3 1003.3 0.0
21/10:00am 35.7 35.5 14.9 29 12.9 SW 11 16 6 9 1003.4 1003.4 0.0
21/09:30am 35.4 35.2 14.7 29 12.8 SSW 10 13 5 7 1003.6 1003.6 0.0
21/09:00am 34.3 33.5 14.1 30 12.3 S 15 21 8 11 1003.5 1003.5 0.0
21/08:30am 33.3 32.9 13.9 31 11.8 SSW 11 16 6 9 1003.2 1003.2 0.0
21/08:00am 32.3 31.5 13.5 32 11.3 S 12 18 7 10 1003.0 1003.0 0.0
21/07:30am 31.3 30.0 11.7 30 11.3 SSW 18 32 10 17 1002.7 1002.7 0.0
21/07:00am 30.2 29.2 12.5 34 10.4 SSW 9 16 5 9 1002.5 1002.5 0.0
21/06:30am 29.1 28.6 12.9 37 9.6 SSW 8 10 4 6 1002.4 1002.4 0.0
21/06:00am 28.0 28.2 14.5 44 8.3 SSW 8 13 4 7 1002.1 1002.1 0.0
21/05:30am 27.3 29.2 18.3 58 6.0 S 6 13 3 7 1001.6 1001.6 0.0
21/05:00am 26.1 29.6 21.9 84 3.0 WSW 4 6 2 4 1001.5 1001.5 0.0
21/04:30am 24.9 30.5 23.9 94 0.7 WSW 2 5 1 3 1001.4 1001.4 0.0
21/04:00am 25.7 31.4 24.5 93 0.9 SW 4 5 2 3 1001.4 1001.4 0.0
21/03:30am 25.8 32.0 24.9 95 0.7 S 2 3 1 2 1001.4 1001.4 0.0
21/03:00am 26.6 31.6 25.4 94 0.9 SSE 9 13 5 7 1001.5 1001.5 0.0
21/02:30am 27.2 32.2 25.8 92 1.0 SSE 11 13 6 7 1001.5 1001.5 0.0
21/02:00am 26.5 32.9 25.5 94 0.7 SSE 3 8 2 4 1001.5 1001.5 0.0
21/01:30am 26.9 32.8 25.7 93 0.9 SSE 6 10 3 6 1001.7 1001.7 0.0
21/01:00am 26.7 33.2 25.5 93 0.9 S 2 2 1 1 1001.9 1001.9 0.0
21/12:30am 27.1 33.8 25.7 92 1.0 SE 1 2 0 1 1001.9 1001.9 0.0
21/12:00am 27.7 34.6 26.1 91 1.2 SE 1 2 1 1 1002.2 1002.2 0.0
 


NOTE: The apparent temperature specified in the table above is calculated using both the Heat Index and Steadman method. This differs to the Bureau of Meteorology's calculation which uses the Steadman method alone.